sensor_id;sensor_type;location;lat;lon;timestamp;pressure;altitude;pressure_sealevel;temperature;humidity
73240;BME280;61452;40.054;4.110;2023-03-01T00:02:43;101660.66;;;13.06;59.33
73240;BME280;61452;40.054;4.110;2023-03-01T00:07:45;101642.16;;;13.08;59.69
73240;BME280;61452;40.054;4.110;2023-03-01T00:12:47;101657.09;;;13.07;60.20
73240;BME280;61452;40.054;4.110;2023-03-01T00:17:49;101644.84;;;13.06;59.60
73240;BME280;61452;40.054;4.110;2023-03-01T00:22:52;101647.47;;;13.06;59.39
73240;BME280;61452;40.054;4.110;2023-03-01T00:27:54;101653.66;;;13.05;58.73
73240;BME280;61452;40.054;4.110;2023-03-01T00:32:56;101636.31;;;13.01;58.27
73240;BME280;61452;40.054;4.110;2023-03-01T00:37:59;101650.91;;;13.08;58.36
73240;BME280;61452;40.054;4.110;2023-03-01T00:43:02;101642.00;;;13.11;58.55
73240;BME280;61452;40.054;4.110;2023-03-01T00:48:05;101651.63;;;13.12;59.11
73240;BME280;61452;40.054;4.110;2023-03-01T00:53:07;101653.59;;;13.07;58.96
73240;BME280;61452;40.054;4.110;2023-03-01T00:58:10;101656.31;;;13.05;59.30
73240;BME280;61452;40.054;4.110;2023-03-01T01:03:12;101648.34;;;13.07;58.92
73240;BME280;61452;40.054;4.110;2023-03-01T01:08:14;101648.34;;;13.07;58.23
73240;BME280;61452;40.054;4.110;2023-03-01T01:13:16;101655.38;;;13.06;58.00
73240;BME280;61452;40.054;4.110;2023-03-01T01:18:18;101648.13;;;13.11;58.32
73240;BME280;61452;40.054;4.110;2023-03-01T01:23:20;101655.31;;;13.08;59.12
73240;BME280;61452;40.054;4.110;2023-03-01T01:28:22;101649.25;;;13.06;58.38
73240;BME280;61452;40.054;4.110;2023-03-01T01:33:25;101631.69;;;13.06;58.28
73240;BME280;61452;40.054;4.110;2023-03-01T01:38:27;101623.72;;;13.08;57.58
73240;BME280;61452;40.054;4.110;2023-03-01T01:43:38;101627.31;;;13.05;57.29
73240;BME280;61452;40.054;4.110;2023-03-01T01:48:46;101611.47;;;13.07;57.21
73240;BME280;61452;40.054;4.110;2023-03-01T01:53:54;101621.84;;;13.10;57.90
73240;BME280;61452;40.054;4.110;2023-03-01T01:58:58;101634.06;;;13.12;58.52
73240;BME280;61452;40.054;4.110;2023-03-01T02:04:00;101625.50;;;13.07;58.38
73240;BME280;61452;40.054;4.110;2023-03-01T02:09:07;101616.84;;;13.04;57.84
73240;BME280;61452;40.054;4.110;2023-03-01T02:14:11;101611.69;;;13.02;57.64
73240;BME280;61452;40.054;4.110;2023-03-01T02:19:50;101614.59;;;12.96;57.59
73240;BME280;61452;40.054;4.110;2023-03-01T02:30:02;101628.97;;;13.08;57.47
73240;BME280;61452;40.054;4.110;2023-03-01T02:35:04;101604.41;;;13.07;58.92
73240;BME280;61452;40.054;4.110;2023-03-01T02:40:14;101621.38;;;13.02;58.66
73240;BME280;61452;40.054;4.110;2023-03-01T02:45:20;101604.69;;;13.01;58.64
73240;BME280;61452;40.054;4.110;2023-03-01T02:50:46;101588.91;;;13.01;58.22
73240;BME280;61452;40.054;4.110;2023-03-01T02:55:54;101587.88;;;13.04;57.71
73240;BME280;61452;40.054;4.110;2023-03-01T03:00:57;101574.66;;;13.05;57.92
73240;BME280;61452;40.054;4.110;2023-03-01T03:06:00;101572.09;;;13.04;58.15
73240;BME280;61452;40.054;4.110;2023-03-01T03:11:04;101568.47;;;13.06;58.62
73240;BME280;61452;40.054;4.110;2023-03-01T03:16:06;101554.50;;;13.04;58.50
73240;BME280;61452;40.054;4.110;2023-03-01T03:21:10;101548.53;;;13.01;58.38
73240;BME280;61452;40.054;4.110;2023-03-01T03:26:12;101563.44;;;13.02;57.45
73240;BME280;61452;40.054;4.110;2023-03-01T03:31:16;101567.75;;;13.03;58.05
73240;BME280;61452;40.054;4.110;2023-03-01T03:36:23;101563.50;;;13.00;57.84
73240;BME280;61452;40.054;4.110;2023-03-01T03:41:25;101548.47;;;13.02;58.16
73240;BME280;61452;40.054;4.110;2023-03-01T03:46:27;101574.66;;;13.05;58.69
73240;BME280;61452;40.054;4.110;2023-03-01T03:51:29;101565.19;;;13.01;58.21
73240;BME280;61452;40.054;4.110;2023-03-01T03:56:32;101563.44;;;13.02;58.05
73240;BME280;61452;40.054;4.110;2023-03-01T04:01:34;101573.00;;;13.03;57.52
73240;BME280;61452;40.054;4.110;2023-03-01T04:06:36;101568.59;;;13.03;57.75
73240;BME280;61452;40.054;4.110;2023-03-01T04:11:39;101570.38;;;13.03;57.89
73240;BME280;61452;40.054;4.110;2023-03-01T04:16:41;101560.78;;;13.02;58.44
73240;BME280;61452;40.054;4.110;2023-03-01T04:21:43;101568.75;;;13.00;59.35
73240;BME280;61452;40.054;4.110;2023-03-01T04:26:45;101559.78;;;13.04;58.98
73240;BME280;61452;40.054;4.110;2023-03-01T04:31:47;101563.28;;;13.05;58.88
73240;BME280;61452;40.054;4.110;2023-03-01T04:36:51;101560.50;;;13.08;58.37
73240;BME280;61452;40.054;4.110;2023-03-01T04:41:53;101556.16;;;13.07;58.53
73240;BME280;61452;40.054;4.110;2023-03-01T04:46:55;101554.28;;;13.09;58.66
73240;BME280;61452;40.054;4.110;2023-03-01T04:51:57;101560.50;;;13.08;59.48
73240;BME280;61452;40.054;4.110;2023-03-01T04:57:03;101560.63;;;13.05;60.11
73240;BME280;61452;40.054;4.110;2023-03-01T05:02:05;101557.09;;;13.06;60.11
73240;BME280;61452;40.054;4.110;2023-03-01T05:07:07;101558.78;;;13.07;59.62
73240;BME280;61452;40.054;4.110;2023-03-01T05:12:10;101571.81;;;13.10;59.46
73240;BME280;61452;40.054;4.110;2023-03-01T05:17:12;101575.34;;;13.09;59.25
73240;BME280;61452;40.054;4.110;2023-03-01T05:22:14;101577.06;;;13.10;59.23
73240;BME280;61452;40.054;4.110;2023-03-01T05:27:16;101580.56;;;13.10;58.73
73240;BME280;61452;40.054;4.110;2023-03-01T05:32:18;101576.22;;;13.09;60.07
73240;BME280;61452;40.054;4.110;2023-03-01T05:37:20;101578.84;;;13.09;60.50
73240;BME280;61452;40.054;4.110;2023-03-01T05:42:22;101592.78;;;13.13;59.37
73240;BME280;61452;40.054;4.110;2023-03-01T05:47:24;101586.59;;;13.14;59.31
73240;BME280;61452;40.054;4.110;2023-03-01T05:52:27;101587.44;;;13.14;59.33
73240;BME280;61452;40.054;4.110;2023-03-01T05:57:29;101591.75;;;13.15;59.17
73240;BME280;61452;40.054;4.110;2023-03-01T06:02:31;101601.44;;;13.15;59.13
73240;BME280;61452;40.054;4.110;2023-03-01T06:07:33;101599.81;;;13.12;59.75
73240;BME280;61452;40.054;4.110;2023-03-01T06:12:38;101613.03;;;13.11;59.90
73240;BME280;61452;40.054;4.110;2023-03-01T06:17:42;101608.59;;;13.13;59.16
73240;BME280;61452;40.054;4.110;2023-03-01T06:22:45;101624.41;;;13.11;59.02
73240;BME280;61452;40.054;4.110;2023-03-01T06:27:48;101626.16;;;13.12;59.21
73240;BME280;61452;40.054;4.110;2023-03-01T06:32:54;101621.69;;;13.14;59.16
73240;BME280;61452;40.054;4.110;2023-03-01T06:38:04;101623.53;;;13.12;59.26
73240;BME280;61452;40.054;4.110;2023-03-01T06:43:06;101643.72;;;13.12;60.56
73240;BME280;61452;40.054;4.110;2023-03-01T06:48:09;101642.00;;;13.11;60.59
73240;BME280;61452;40.054;4.110;2023-03-01T06:53:11;101636.69;;;13.12;59.80
73240;BME280;61452;40.054;4.110;2023-03-01T06:58:13;101636.63;;;13.14;59.46
73240;BME280;61452;40.054;4.110;2023-03-01T07:03:15;101644.53;;;13.14;59.66
73240;BME280;61452;40.054;4.110;2023-03-01T07:08:18;101651.44;;;13.16;59.40
73240;BME280;61452;40.054;4.110;2023-03-01T07:13:20;101663.03;;;13.12;59.79
73240;BME280;61452;40.054;4.110;2023-03-01T07:18:22;101653.53;;;13.08;60.91
73240;BME280;61452;40.054;4.110;2023-03-01T07:23:25;101677.16;;;13.10;60.92
73240;BME280;61452;40.054;4.110;2023-03-01T07:28:27;101668.31;;;13.12;60.20
73240;BME280;61452;40.054;4.110;2023-03-01T07:33:29;101680.56;;;13.13;59.83
73240;BME280;61452;40.054;4.110;2023-03-01T07:38:31;101686.78;;;13.11;59.68
73240;BME280;61452;40.054;4.110;2023-03-01T07:43:34;101680.56;;;13.13;59.41
73240;BME280;61452;40.054;4.110;2023-03-01T07:48:37;101687.69;;;13.10;59.89
73240;BME280;61452;40.054;4.110;2023-03-01T07:53:39;101702.63;;;13.09;61.14
73240;BME280;61452;40.054;4.110;2023-03-01T07:58:42;101689.56;;;13.08;61.31
73240;BME280;61452;40.054;4.110;2023-03-01T08:03:47;101700.94;;;13.08;60.27
73240;BME280;61452;40.054;4.110;2023-03-01T08:08:49;101708.69;;;13.11;60.12
73240;BME280;61452;40.054;4.110;2023-03-01T08:13:51;101714.81;;;13.13;59.69
73240;BME280;61452;40.054;4.110;2023-03-01T08:18:54;101716.50;;;13.14;59.48
73240;BME280;61452;40.054;4.110;2023-03-01T08:23:58;101715.56;;;13.15;59.55
73240;BME280;61452;40.054;4.110;2023-03-01T08:29:00;101717.47;;;13.12;60.10
73240;BME280;61452;40.054;4.110;2023-03-01T08:34:08;101705.28;;;13.09;60.70
73240;BME280;61452;40.054;4.110;2023-03-01T08:39:13;101719.28;;;13.10;60.35
73240;BME280;61452;40.054;4.110;2023-03-01T08:44:16;101714.81;;;13.12;59.39
73240;BME280;61452;40.054;4.110;2023-03-01T08:49:19;101722.69;;;13.13;59.60
73240;BME280;61452;40.054;4.110;2023-03-01T08:54:21;101731.47;;;13.14;59.34
73240;BME280;61452;40.054;4.110;2023-03-01T08:59:25;101721.78;;;13.14;59.06
73240;BME280;61452;40.054;4.110;2023-03-01T09:04:27;101737.66;;;13.13;60.00
73240;BME280;61452;40.054;4.110;2023-03-01T09:09:29;101742.94;;;13.11;60.81
73240;BME280;61452;40.054;4.110;2023-03-01T09:14:31;101742.00;;;13.14;59.57
73240;BME280;61452;40.054;4.110;2023-03-01T09:19:34;101742.84;;;13.14;59.71
73240;BME280;61452;40.054;4.110;2023-03-01T09:24:36;101723.47;;;13.15;59.13
73240;BME280;61452;40.054;4.110;2023-03-01T09:29:38;101736.63;;;13.15;59.05
73240;BME280;61452;40.054;4.110;2023-03-01T09:34:41;101728.69;;;13.17;59.10
73240;BME280;61452;40.054;4.110;2023-03-01T09:40:04;101727.97;;;13.13;59.89
73240;BME280;61452;40.054;4.110;2023-03-01T09:45:11;101721.84;;;13.13;60.73
73240;BME280;61452;40.054;4.110;2023-03-01T09:50:20;101729.59;;;13.16;59.21
73240;BME280;61452;40.054;4.110;2023-03-01T09:55:32;101724.31;;;13.16;59.28
73240;BME280;61452;40.054;4.110;2023-03-01T10:00:42;101725.19;;;13.16;59.05
73240;BME280;61452;40.054;4.110;2023-03-01T10:11:21;101723.56;;;13.14;59.42
73240;BME280;61452;40.054;4.110;2023-03-01T10:16:40;101716.56;;;13.13;60.22
73240;BME280;61452;40.054;4.110;2023-03-01T10:21:45;101717.34;;;13.15;59.74
73240;BME280;61452;40.054;4.110;2023-03-01T10:26:55;101718.19;;;13.15;59.37
73240;BME280;61452;40.054;4.110;2023-03-01T10:31:58;101723.41;;;13.17;59.10
73240;BME280;61452;40.054;4.110;2023-03-01T10:37:21;101712.06;;;13.15;58.92
73240;BME280;61452;40.054;4.110;2023-03-01T10:42:33;101706.81;;;13.15;58.79
73240;BME280;61452;40.054;4.110;2023-03-01T10:47:36;101712.88;;;13.17;59.18
73240;BME280;61452;40.054;4.110;2023-03-01T10:52:41;101712.06;;;13.15;60.24
73240;BME280;61452;40.054;4.110;2023-03-01T10:57:43;101719.91;;;13.16;60.00
73240;BME280;61452;40.054;4.110;2023-03-01T11:03:03;101719.00;;;13.17;59.36
73240;BME280;61452;40.054;4.110;2023-03-01T11:08:05;101720.78;;;13.17;59.31
73240;BME280;61452;40.054;4.110;2023-03-01T11:13:18;101719.16;;;13.14;59.23
73240;BME280;61452;40.054;4.110;2023-03-01T11:18:22;101710.38;;;13.14;59.36
73240;BME280;61452;40.054;4.110;2023-03-01T11:23:43;101707.03;;;13.09;59.02
73240;BME280;61452;40.054;4.110;2023-03-01T11:28:51;101716.50;;;13.14;59.17
73240;BME280;61452;40.054;4.110;2023-03-01T11:39:05;101714.66;;;13.16;59.30
73240;BME280;61452;40.054;4.110;2023-03-01T11:44:19;101715.56;;;13.15;59.36
73240;BME280;61452;40.054;4.110;2023-03-01T12:10:45;101698.78;;;13.18;59.14
73240;BME280;61452;40.054;4.110;2023-03-01T12:37:54;101679.09;;;13.06;58.63
73240;BME280;61452;40.054;4.110;2023-03-01T12:53:48;101666.47;;;13.14;58.55
73240;BME280;61452;40.054;4.110;2023-03-01T12:59:02;101683.22;;;13.12;58.54
73240;BME280;61452;40.054;4.110;2023-03-01T13:14:54;101669.19;;;13.11;58.24
73240;BME280;61452;40.054;4.110;2023-03-01T13:19:59;101665.53;;;13.15;57.80
73240;BME280;61452;40.054;4.110;2023-03-01T13:25:14;101668.25;;;13.14;57.98
73240;BME280;61452;40.054;4.110;2023-03-01T13:30:41;101656.03;;;13.11;58.08
73240;BME280;61452;40.054;4.110;2023-03-01T13:35:44;101659.50;;;13.12;58.25
73240;BME280;61452;40.054;4.110;2023-03-01T13:40:57;101660.41;;;13.12;58.06
73240;BME280;61452;40.054;4.110;2023-03-01T13:45:59;101639.34;;;13.12;57.93
73240;BME280;61452;40.054;4.110;2023-03-01T13:51:07;101642.75;;;13.14;57.68
73240;BME280;61452;40.054;4.110;2023-03-01T13:56:20;101645.31;;;13.16;57.89
73240;BME280;61452;40.054;4.110;2023-03-01T14:01:34;101640.03;;;13.16;57.69
73240;BME280;61452;40.054;4.110;2023-03-01T14:06:37;101644.44;;;13.15;57.51
73240;BME280;61452;40.054;4.110;2023-03-01T14:17:22;101639.44;;;13.09;57.82
73240;BME280;61452;40.054;4.110;2023-03-01T14:22:33;101645.53;;;13.10;57.77
73240;BME280;61452;40.054;4.110;2023-03-01T14:27:38;101635.78;;;13.13;57.65
73240;BME280;61452;40.054;4.110;2023-03-01T14:32:56;101633.06;;;13.15;57.59
73240;BME280;61452;40.054;4.110;2023-03-01T14:37:59;101643.59;;;13.15;57.78
73240;BME280;61452;40.054;4.110;2023-03-01T14:43:11;101626.34;;;13.08;57.68
73240;BME280;61452;40.054;4.110;2023-03-01T14:48:14;101642.84;;;13.11;57.38
73240;BME280;61452;40.054;4.110;2023-03-01T14:53:22;101643.78;;;13.10;57.40
73240;BME280;61452;40.054;4.110;2023-03-01T14:58:26;101632.38;;;13.10;57.31
73240;BME280;61452;40.054;4.110;2023-03-01T15:03:40;101631.38;;;13.14;57.38
73240;BME280;61452;40.054;4.110;2023-03-01T15:08:46;101630.50;;;13.13;57.26
73240;BME280;61452;40.054;4.110;2023-03-01T15:13:49;101631.38;;;13.14;57.56
73240;BME280;61452;40.054;4.110;2023-03-01T15:19:03;101627.03;;;13.13;57.63
73240;BME280;61452;40.054;4.110;2023-03-01T15:24:20;101626.19;;;13.11;57.35
73240;BME280;61452;40.054;4.110;2023-03-01T15:29:28;101613.03;;;13.11;57.15
73240;BME280;61452;40.054;4.110;2023-03-01T15:34:36;101606.91;;;13.10;56.97
73240;BME280;61452;40.054;4.110;2023-03-01T15:39:41;101605.09;;;13.12;56.89
73240;BME280;61452;40.054;4.110;2023-03-01T15:44:47;101593.53;;;13.15;57.21
73240;BME280;61452;40.054;4.110;2023-03-01T15:49:52;101595.41;;;13.13;57.37
73240;BME280;61452;40.054;4.110;2023-03-01T15:55:01;101593.72;;;13.10;57.42
73240;BME280;61452;40.054;4.110;2023-03-01T16:00:04;101588.47;;;13.10;57.44
73240;BME280;61452;40.054;4.110;2023-03-01T16:10:24;101567.31;;;13.12;57.19
73240;BME280;61452;40.054;4.110;2023-03-01T16:15:29;101575.09;;;13.15;57.02
73240;BME280;61452;40.054;4.110;2023-03-01T16:20:34;101573.31;;;13.15;57.01
73240;BME280;61452;40.054;4.110;2023-03-01T16:25:36;101578.69;;;13.14;57.29
73240;BME280;61452;40.054;4.110;2023-03-01T16:30:39;101583.09;;;13.13;57.15
73240;BME280;61452;40.054;4.110;2023-03-01T16:35:41;101576.22;;;13.09;57.03
73240;BME280;61452;40.054;4.110;2023-03-01T16:40:48;101583.09;;;13.13;56.93
73240;BME280;61452;40.054;4.110;2023-03-01T16:45:51;101590.78;;;13.18;56.39
73240;BME280;61452;40.054;4.110;2023-03-01T16:50:58;101591.63;;;13.18;56.08
73240;BME280;61452;40.054;4.110;2023-03-01T16:56:00;101600.34;;;13.20;56.19
73240;BME280;61452;40.054;4.110;2023-03-01T17:01:14;101597.75;;;13.19;56.41
73240;BME280;61452;40.054;4.110;2023-03-01T17:06:20;101591.63;;;13.18;56.42
73240;BME280;61452;40.054;4.110;2023-03-01T17:11:23;101598.69;;;13.18;56.31
73240;BME280;61452;40.054;4.110;2023-03-01T17:16:25;101595.25;;;13.16;56.25
73240;BME280;61452;40.054;4.110;2023-03-01T17:21:28;101604.06;;;13.15;55.81
73240;BME280;61452;40.054;4.110;2023-03-01T17:26:31;101604.75;;;13.20;55.65
73240;BME280;61452;40.054;4.110;2023-03-01T17:31:33;101606.38;;;13.22;55.25
73240;BME280;61452;40.054;4.110;2023-03-01T17:36:35;101606.38;;;13.22;55.48
73240;BME280;61452;40.054;4.110;2023-03-01T17:41:44;101610.88;;;13.20;55.35
73240;BME280;61452;40.054;4.110;2023-03-01T17:46:47;101615.34;;;13.18;55.68
73240;BME280;61452;40.054;4.110;2023-03-01T17:51:50;101626.00;;;13.15;55.57
73240;BME280;61452;40.054;4.110;2023-03-01T17:56:52;101625.03;;;13.18;55.43
73240;BME280;61452;40.054;4.110;2023-03-01T18:01:54;101633.63;;;13.21;55.10
73240;BME280;61452;40.054;4.110;2023-03-01T18:06:57;101635.34;;;13.22;55.20
73240;BME280;61452;40.054;4.110;2023-03-01T18:11:59;101642.38;;;13.22;55.48
73240;BME280;61452;40.054;4.110;2023-03-01T18:17:02;101649.44;;;13.21;55.57
73240;BME280;61452;40.054;4.110;2023-03-01T18:22:07;101659.97;;;13.21;55.23
73240;BME280;61452;40.054;4.110;2023-03-01T18:27:09;101662.75;;;13.18;55.21
73240;BME280;61452;40.054;4.110;2023-03-01T18:32:12;101661.91;;;13.18;54.88
73240;BME280;61452;40.054;4.110;2023-03-01T18:37:15;101661.91;;;13.18;54.87
73240;BME280;61452;40.054;4.110;2023-03-01T18:42:17;101672.16;;;13.24;54.93
73240;BME280;61452;40.054;4.110;2023-03-01T18:47:21;101680.19;;;13.21;55.04
73240;BME280;61452;40.054;4.110;2023-03-01T18:52:23;101681.19;;;13.18;55.31
73240;BME280;61452;40.054;4.110;2023-03-01T18:57:25;101683.91;;;13.17;55.13
73240;BME280;61452;40.054;4.110;2023-03-01T19:02:28;101683.03;;;13.16;55.02
73240;BME280;61452;40.054;4.110;2023-03-01T19:07:30;101688.25;;;13.18;54.90
73240;BME280;61452;40.054;4.110;2023-03-01T19:12:34;101681.13;;;13.20;54.39
73240;BME280;61452;40.054;4.110;2023-03-01T19:17:36;101684.47;;;13.23;54.91
73240;BME280;61452;40.054;4.110;2023-03-01T19:22:38;101687.16;;;13.22;55.00
73240;BME280;61452;40.054;4.110;2023-03-01T19:27:40;101692.59;;;13.19;55.22
73240;BME280;61452;40.054;4.110;2023-03-01T19:32:42;101684.81;;;13.16;55.21
73240;BME280;61452;40.054;4.110;2023-03-01T19:37:45;101686.59;;;13.15;55.19
73240;BME280;61452;40.054;4.110;2023-03-01T19:42:47;101677.09;;;13.11;55.32
73240;BME280;61452;40.054;4.110;2023-03-01T19:47:49;101689.91;;;13.20;54.87
73240;BME280;61452;40.054;4.110;2023-03-01T19:52:52;101693.31;;;13.22;55.01
73240;BME280;61452;40.054;4.110;2023-03-01T19:57:55;101695.00;;;13.23;55.02
73240;BME280;61452;40.054;4.110;2023-03-01T20:02:57;101693.34;;;13.21;55.20
73240;BME280;61452;40.054;4.110;2023-03-01T20:07:59;101697.94;;;13.17;55.37
73240;BME280;61452;40.054;4.110;2023-03-01T20:13:01;101692.81;;;13.14;55.30
73240;BME280;61452;40.054;4.110;2023-03-01T20:18:03;101693.72;;;13.13;55.25
73240;BME280;61452;40.054;4.110;2023-03-01T20:23:06;101698.06;;;13.14;55.18
73240;BME280;61452;40.054;4.110;2023-03-01T20:28:08;101696.22;;;13.16;55.02
73240;BME280;61452;40.054;4.110;2023-03-01T20:33:11;101697.13;;;13.15;55.04
73240;BME280;61452;40.054;4.110;2023-03-01T20:38:13;101698.13;;;13.13;55.16
73240;BME280;61452;40.054;4.110;2023-03-01T20:43:15;101707.84;;;13.11;55.20
73240;BME280;61452;40.054;4.110;2023-03-01T20:48:17;101711.41;;;13.10;55.22
73240;BME280;61452;40.054;4.110;2023-03-01T20:53:19;101715.81;;;13.09;55.13
73240;BME280;61452;40.054;4.110;2023-03-01T20:58:22;101713.13;;;13.11;55.17
73240;BME280;61452;40.054;4.110;2023-03-01T21:03:24;101709.53;;;13.13;54.79
73240;BME280;61452;40.054;4.110;2023-03-01T21:08:27;101718.28;;;13.14;54.91
73240;BME280;61452;40.054;4.110;2023-03-01T21:13:30;101709.63;;;13.10;55.12
73240;BME280;61452;40.054;4.110;2023-03-01T21:18:34;101718.44;;;13.09;54.90
73240;BME280;61452;40.054;4.110;2023-03-01T21:23:39;101721.16;;;13.08;54.96
73240;BME280;61452;40.054;4.110;2023-03-01T21:28:42;101715.91;;;13.08;54.88
73240;BME280;61452;40.054;4.110;2023-03-01T21:33:49;101716.66;;;13.10;54.85
73240;BME280;61452;40.054;4.110;2023-03-01T21:38:52;101719.22;;;13.13;54.70
73240;BME280;61452;40.054;4.110;2023-03-01T21:43:56;101722.72;;;13.12;54.88
73240;BME280;61452;40.054;4.110;2023-03-01T21:49:00;101723.72;;;13.09;55.07
73240;BME280;61452;40.054;4.110;2023-03-01T21:54:03;101720.31;;;13.07;55.08
73240;BME280;61452;40.054;4.110;2023-03-01T21:59:07;101715.94;;;13.06;54.95
73240;BME280;61452;40.054;4.110;2023-03-01T22:04:12;101721.22;;;13.06;54.83
73240;BME280;61452;40.054;4.110;2023-03-01T22:09:17;101715.81;;;13.09;54.51
73240;BME280;61452;40.054;4.110;2023-03-01T22:14:20;101716.59;;;13.11;54.31
73240;BME280;61452;40.054;4.110;2023-03-01T22:19:23;101715.81;;;13.09;54.74
73240;BME280;61452;40.054;4.110;2023-03-01T22:24:25;101710.63;;;13.08;54.80
73240;BME280;61452;40.054;4.110;2023-03-01T22:29:28;101701.06;;;13.05;54.88
73240;BME280;61452;40.054;4.110;2023-03-01T22:34:30;101704.56;;;13.06;54.73
73240;BME280;61452;40.054;4.110;2023-03-01T22:39:32;101709.81;;;13.06;54.71
73240;BME280;61452;40.054;4.110;2023-03-01T22:44:34;101702.72;;;13.08;54.63
73240;BME280;61452;40.054;4.110;2023-03-01T22:49:37;101706.97;;;13.10;54.46
73240;BME280;61452;40.054;4.110;2023-03-01T22:54:39;101699.94;;;13.11;54.78
73240;BME280;61452;40.054;4.110;2023-03-01T22:59:41;101691.19;;;13.10;54.82
73240;BME280;61452;40.054;4.110;2023-03-01T23:04:45;101697.47;;;13.08;54.95
73240;BME280;61452;40.054;4.110;2023-03-01T23:09:49;101680.00;;;13.05;54.84
73240;BME280;61452;40.054;4.110;2023-03-01T23:14:51;101684.41;;;13.05;54.73
73240;BME280;61452;40.054;4.110;2023-03-01T23:19:53;101690.53;;;13.05;54.69
73240;BME280;61452;40.054;4.110;2023-03-01T23:24:56;101686.06;;;13.07;54.58
73240;BME280;61452;40.054;4.110;2023-03-01T23:29:58;101687.63;;;13.11;54.73
73240;BME280;61452;40.054;4.110;2023-03-01T23:35:00;101680.72;;;13.09;54.72
73240;BME280;61452;40.054;4.110;2023-03-01T23:40:03;101671.97;;;13.08;55.28
73240;BME280;61452;40.054;4.110;2023-03-01T23:45:07;101682.50;;;13.08;55.19
73240;BME280;61452;40.054;4.110;2023-03-01T23:50:10;101681.66;;;13.08;55.36
73240;BME280;61452;40.054;4.110;2023-03-01T23:55:13;101670.44;;;13.03;55.08
